createdAt,value
2016-05-26T00:00:19.074Z,15.89
2016-05-26T00:01:18.561Z,15.85
2016-05-26T00:02:18.579Z,15.79
2016-05-26T00:03:18.878Z,15.76
2016-05-26T00:04:18.538Z,15.78
2016-05-26T00:05:18.368Z,15.82
2016-05-26T00:06:18.481Z,15.7
2016-05-26T00:07:18.373Z,15.82
2016-05-26T00:08:18.423Z,15.79
2016-05-26T00:09:18.411Z,15.84
2016-05-26T00:10:18.553Z,15.68
2016-05-26T00:11:18.416Z,15.74
2016-05-26T00:12:18.308Z,15.74
2016-05-26T00:13:18.311Z,15.72
2016-05-26T00:14:18.284Z,15.64
2016-05-26T00:15:18.239Z,15.61
2016-05-26T00:16:18.055Z,15.61
2016-05-26T00:17:18.932Z,15.59
2016-05-26T00:18:18.247Z,15.64
2016-05-26T00:19:18.188Z,15.68
2016-05-26T00:20:18.144Z,15.68
2016-05-26T00:21:17.958Z,15.7
2016-05-26T00:22:18.008Z,15.61
2016-05-26T00:23:17.933Z,15.68
2016-05-26T00:24:18.169Z,15.54
2016-05-26T00:25:18.891Z,15.61
2016-05-26T00:26:17.987Z,15.52
2016-05-26T00:27:18.365Z,15.64
2016-05-26T00:28:18.024Z,15.52
2016-05-26T00:29:18.448Z,15.59
2016-05-26T00:30:17.998Z,15.61
2016-05-26T00:31:18.251Z,15.57
2016-05-26T00:32:18.909Z,15.6
2016-05-26T00:33:18.053Z,15.63
2016-05-26T00:34:17.837Z,15.57
2016-05-26T00:35:18.012Z,15.57
2016-05-26T00:36:18.281Z,15.57
2016-05-26T00:37:20.987Z,15.56
2016-05-26T00:38:20.395Z,15.61
2016-05-26T00:39:21.398Z,15.59
2016-05-26T00:40:20.103Z,15.61
2016-05-26T00:41:20.590Z,15.61
2016-05-26T00:42:19.906Z,15.57
2016-05-26T00:43:19.924Z,15.6
2016-05-26T00:44:20.067Z,15.59
2016-05-26T00:45:18.788Z,15.52
2016-05-26T00:46:20.088Z,15.61
2016-05-26T00:47:20.060Z,15.59
2016-05-26T00:48:20.047Z,15.54
2016-05-26T00:49:20.846Z,15.48
2016-05-26T00:50:20.068Z,15.52
2016-05-26T00:51:20.071Z,15.56
2016-05-26T00:52:19.682Z,15.54
2016-05-26T00:53:20.404Z,15.56
2016-05-26T00:54:19.797Z,15.57
2016-05-26T00:55:19.737Z,15.6
2016-05-26T00:56:19.849Z,15.54
2016-05-26T00:57:19.462Z,15.57
2016-05-26T00:58:19.215Z,15.52
2016-05-26T00:59:19.982Z,15.57
2016-05-26T01:00:19.829Z,15.52
2016-05-26T01:01:19.769Z,15.56
2016-05-26T01:02:18.396Z,15.45
2016-05-26T01:03:18.149Z,15.54
2016-05-26T01:04:18.652Z,15.45
2016-05-26T01:05:19.359Z,15.46
2016-05-26T01:06:19.329Z,15.52
2016-05-26T01:07:22.629Z,15.49
2016-05-26T01:08:19.537Z,15.52
2016-05-26T01:09:16.994Z,15.48
2016-05-26T01:10:16.965Z,15.46
2016-05-26T01:11:17.452Z,15.45
2016-05-26T01:12:16.893Z,15.45
2016-05-26T01:13:17.223Z,15.39
2016-05-26T01:14:17.085Z,15.42
2016-05-26T01:15:17.072Z,15.39
2016-05-26T01:16:16.934Z,15.45
2016-05-26T01:17:16.937Z,15.33
2016-05-26T01:18:17.127Z,15.35
2016-05-26T01:19:16.661Z,15.35
2016-05-26T01:20:16.789Z,15.31
2016-05-26T01:21:16.698Z,15.28
2016-05-26T01:22:16.732Z,15.26
2016-05-26T01:23:16.890Z,15.27
2016-05-26T01:24:16.972Z,15.24
2016-05-26T01:25:17.396Z,15.26
2016-05-26T01:26:16.899Z,15.28
2016-05-26T01:27:16.963Z,15.26
2016-05-26T01:28:16.763Z,15.24
2016-05-26T01:29:16.719Z,15.19
2016-05-26T01:30:16.581Z,15.15
2016-05-26T01:31:16.460Z,15.11
2016-05-26T01:32:17.056Z,15.17
2016-05-26T01:33:17.215Z,15.19
2016-05-26T01:34:16.811Z,15.12
2016-05-26T01:35:16.470Z,15.12
2016-05-26T01:36:16.395Z,15.08
2016-05-26T01:37:16.445Z,15.19
2016-05-26T01:38:16.557Z,15.02
2016-05-26T01:39:16.903Z,15.05
2016-05-26T01:40:16.406Z,15.09
2016-05-26T01:41:16.330Z,15.08
2016-05-26T01:42:16.317Z,15.03
2016-05-26T01:43:16.242Z,15.03
2016-05-26T01:44:16.353Z,15.08
2016-05-26T01:45:16.278Z,15.03
2016-05-26T01:46:16.218Z,15.06
2016-05-26T01:47:16.267Z,15.06
2016-05-26T01:48:16.536Z,15.01
2016-05-26T01:49:16.319Z,15.01
2016-05-26T01:50:16.494Z,14.98
2016-05-26T01:51:16.216Z,14.98
2016-05-26T01:52:15.985Z,14.99
2016-05-26T01:53:16.066Z,15.06
2016-05-26T01:54:16.177Z,15.02
2016-05-26T01:55:16.039Z,14.99
2016-05-26T01:56:16.058Z,14.94
2016-05-26T01:57:15.920Z,14.93
2016-05-26T01:58:15.610Z,14.99
2016-05-26T01:59:16.035Z,14.91
2016-05-26T02:00:15.740Z,14.93
2016-05-26T02:01:15.993Z,14.91
2016-05-26T02:02:15.652Z,14.93
2016-05-26T02:03:16.154Z,14.93
2016-05-26T02:04:15.720Z,14.84
2016-05-26T02:05:15.737Z,14.93
2016-05-26T02:06:15.710Z,14.78
2016-05-26T02:07:15.759Z,14.93
2016-05-26T02:08:15.684Z,14.81
2016-05-26T02:09:15.639Z,14.78
2016-05-26T02:10:15.736Z,14.84
2016-05-26T02:11:15.598Z,14.83
2016-05-26T02:12:15.600Z,14.71
2016-05-26T02:13:15.760Z,14.71
2016-05-26T02:14:15.465Z,14.74
2016-05-26T02:15:15.561Z,14.67
2016-05-26T02:16:15.549Z,14.74
2016-05-26T02:17:15.552Z,14.69
2016-05-26T02:18:15.648Z,14.74
2016-05-26T02:19:15.433Z,14.69
2016-05-26T02:20:15.310Z,14.65
2016-05-26T02:21:15.359Z,14.68
2016-05-26T02:22:15.800Z,14.71
2016-05-26T02:23:15.443Z,14.65
2016-05-26T02:24:15.289Z,14.64
2016-05-26T02:25:15.291Z,14.61
2016-05-26T02:26:15.216Z,14.6
2016-05-26T02:27:15.219Z,14.57
2016-05-26T02:28:15.627Z,14.57
2016-05-26T02:29:15.443Z,14.56
2016-05-26T02:30:15.680Z,14.57
2016-05-26T02:31:15.120Z,14.57
2016-05-26T02:32:15.467Z,14.52
2016-05-26T02:33:15.688Z,14.64
2016-05-26T02:34:15.066Z,14.54
2016-05-26T02:35:15.304Z,14.53
2016-05-26T02:36:15.212Z,14.54
2016-05-26T02:37:15.902Z,14.54
2016-05-26T02:38:14.968Z,14.53
2016-05-26T02:39:14.939Z,14.49
2016-05-26T02:40:14.754Z,14.42
2016-05-26T02:41:15.242Z,14.39
2016-05-26T02:42:15.181Z,14.43
2016-05-26T02:43:14.809Z,14.43
2016-05-26T02:44:15.062Z,14.47
2016-05-26T02:45:15.455Z,14.44
2016-05-26T02:46:14.770Z,14.46
2016-05-26T02:47:14.725Z,14.43
2016-05-26T02:48:16.166Z,14.42
2016-05-26T02:49:14.606Z,14.38
2016-05-26T02:50:14.718Z,14.43
2016-05-26T02:51:15.299Z,14.29
2016-05-26T02:52:15.271Z,14.34
2016-05-26T02:53:14.680Z,14.34
2016-05-26T02:54:14.573Z,14.24
2016-05-26T02:55:14.592Z,14.38
2016-05-26T02:56:14.390Z,14.27
2016-05-26T02:57:14.425Z,14.37
2016-05-26T02:58:14.881Z,14.31
2016-05-26T02:59:15.040Z,14.42
2016-05-26T03:00:14.793Z,14.32
2016-05-26T03:01:14.466Z,14.28
2016-05-26T03:02:14.376Z,14.34
2016-05-26T03:03:15.207Z,14.32
2016-05-26T03:04:14.756Z,14.25
2016-05-26T03:05:14.181Z,14.35
2016-05-26T03:06:14.324Z,14.28
2016-05-26T03:07:14.936Z,14.32
2016-05-26T03:08:15.018Z,14.31
2016-05-26T03:09:14.254Z,14.32
2016-05-26T03:10:14.365Z,14.25
2016-05-26T03:11:14.025Z,14.21
2016-05-26T03:12:14.215Z,14.27
2016-05-26T03:13:14.187Z,14.28
2016-05-26T03:14:14.159Z,14.24
2016-05-26T03:15:14.145Z,14.24
2016-05-26T03:16:13.898Z,14.25
2016-05-26T03:17:14.073Z,14.25
2016-05-26T03:18:14.372Z,14.28
2016-05-26T03:19:13.937Z,14.24
2016-05-26T03:20:14.064Z,14.24
2016-05-26T03:21:13.927Z,14.24
2016-05-26T03:22:13.898Z,14.21
2016-05-26T03:23:13.900Z,14.25
2016-05-26T03:24:13.857Z,14.17
2016-05-26T03:25:13.750Z,14.2
2016-05-26T03:26:13.830Z,14.2
2016-05-26T03:27:13.818Z,14.21
2016-05-26T03:28:13.774Z,14.14
2016-05-26T03:29:13.761Z,14.17
2016-05-26T03:30:13.763Z,14.2
2016-05-26T03:31:13.719Z,14.14
2016-05-26T03:32:13.691Z,14.2
2016-05-26T03:33:14.257Z,14.2
2016-05-26T03:34:13.462Z,14.16
2016-05-26T03:35:13.620Z,14.14
2016-05-26T03:36:13.608Z,14.16
2016-05-26T03:37:13.548Z,14.14
2016-05-26T03:38:13.582Z,14.12
2016-05-26T03:39:13.365Z,14.14
2016-05-26T03:40:13.525Z,14.16
2016-05-26T03:41:13.324Z,14.14
2016-05-26T03:42:13.483Z,14.1
2016-05-26T03:43:13.439Z,14.16
2016-05-26T03:44:13.301Z,14.14
2016-05-26T03:45:13.381Z,14.07
2016-05-26T03:46:13.212Z,14.07
2016-05-26T03:47:13.325Z,14.12
2016-05-26T03:48:13.375Z,14.1
2016-05-26T03:49:13.143Z,14.07
2016-05-26T03:50:13.270Z,14.12
2016-05-26T03:51:13.226Z,14.07
2016-05-26T03:52:13.057Z,13.99
2016-05-26T03:53:13.935Z,14.04
2016-05-26T03:54:13.172Z,14.04
2016-05-26T03:55:13.144Z,14.06
2016-05-26T03:56:13.146Z,14.06
2016-05-26T03:57:12.946Z,14.09
2016-05-26T03:58:13.073Z,14.13
2016-05-26T03:59:13.029Z,14.04
2016-05-26T04:00:12.891Z,14.02
2016-05-26T04:01:12.988Z,14.07
2016-05-26T04:02:12.959Z,14.09
2016-05-26T04:03:12.696Z,14.07
2016-05-26T04:04:12.933Z,14.1
2016-05-26T04:05:12.983Z,14.04
2016-05-26T04:06:12.845Z,14.02
2016-05-26T04:07:12.691Z,14.12
2016-05-26T04:08:12.819Z,14.06
2016-05-26T04:09:12.790Z,14.02
2016-05-26T04:10:12.809Z,14.04
2016-05-26T04:11:12.795Z,14.07
2016-05-26T04:12:12.798Z,14.1
2016-05-26T04:13:12.614Z,14.02
2016-05-26T04:14:12.679Z,14.06
2016-05-26T04:15:12.634Z,14.04
2016-05-26T04:16:12.543Z,14.1
2016-05-26T04:17:12.655Z,14.01
2016-05-26T04:18:12.315Z,14.07
2016-05-26T04:19:12.599Z,14.04
2016-05-26T04:20:12.538Z,14.07
2016-05-26T04:21:12.510Z,14.07
2016-05-26T04:22:12.513Z,14.06
2016-05-26T04:23:12.359Z,14.04
2016-05-26T04:24:12.284Z,14.04
2016-05-26T04:25:12.427Z,14.09
2016-05-26T04:26:12.274Z,14.06
2016-05-26T04:27:12.386Z,14.06
2016-05-26T04:28:12.232Z,14.06
2016-05-26T04:29:12.188Z,14.04
2016-05-26T04:30:12.300Z,14.06
2016-05-26T04:31:12.302Z,14.07
2016-05-26T04:32:12.274Z,14.12
2016-05-26T04:33:12.339Z,14.06
2016-05-26T04:34:12.232Z,14.13
2016-05-26T04:35:12.188Z,14.14
2016-05-26T04:36:12.206Z,14.16
2016-05-26T04:37:12.163Z,14.06
2016-05-26T04:38:12.119Z,14.2
2016-05-26T04:39:12.090Z,14.14
2016-05-26T04:40:12.062Z,14.14
2016-05-26T04:41:12.048Z,14.2
2016-05-26T04:42:12.020Z,14.16
2016-05-26T04:43:11.851Z,14.21
2016-05-26T04:44:11.962Z,14.19
2016-05-26T04:45:11.965Z,14.21
2016-05-26T04:46:11.749Z,14.21
2016-05-26T04:47:11.908Z,14.27
2016-05-26T04:48:12.129Z,14.27
2016-05-26T04:49:11.867Z,14.27
2016-05-26T04:50:11.869Z,14.16
2016-05-26T04:51:11.794Z,14.17
2016-05-26T04:52:11.781Z,14.27
2016-05-26T04:53:11.784Z,14.31
2016-05-26T04:54:11.803Z,14.27
2016-05-26T04:55:11.819Z,14.2
2016-05-26T04:56:11.745Z,14.31
2016-05-26T04:57:11.748Z,14.32
2016-05-26T04:58:11.672Z,14.31
2016-05-26T04:59:11.550Z,14.34
2016-05-26T05:00:11.615Z,14.35
2016-05-26T05:01:11.680Z,14.37
2016-05-26T05:02:11.574Z,14.42
2016-05-26T05:03:11.404Z,14.34
2016-05-26T05:04:11.516Z,14.34
2016-05-26T05:05:11.565Z,14.46
2016-05-26T05:06:11.474Z,14.47
2016-05-26T05:07:11.603Z,14.49
2016-05-26T05:08:11.355Z,14.54
2016-05-26T05:09:11.232Z,14.56
2016-05-26T05:10:11.360Z,14.61
2016-05-26T05:11:11.363Z,14.57
2016-05-26T05:12:11.319Z,14.57
2016-05-26T05:13:11.291Z,14.65
2016-05-26T05:14:11.137Z,14.68
2016-05-26T05:15:11.140Z,14.69
2016-05-26T05:16:11.221Z,14.72
2016-05-26T05:17:11.739Z,14.83
2016-05-26T05:18:11.209Z,14.81
2016-05-26T05:19:11.212Z,14.83
2016-05-26T05:20:11.137Z,14.84
2016-05-26T05:21:10.953Z,14.9
2016-05-26T05:22:11.127Z,14.94
2016-05-26T05:23:11.131Z,14.95
2016-05-26T05:24:11.039Z,14.99
2016-05-26T05:25:11.213Z,14.99
2016-05-26T05:26:11.013Z,15.03
2016-05-26T05:27:11.297Z,15.06
2016-05-26T05:28:10.784Z,15.11
2016-05-26T05:29:10.928Z,15.03
2016-05-26T05:30:10.992Z,15.03
2016-05-26T05:31:10.886Z,15.21
2016-05-26T05:32:10.905Z,15.12
2016-05-26T05:33:10.735Z,15.17
2016-05-26T05:34:11.238Z,15.23
2016-05-26T05:35:10.850Z,15.23
2016-05-26T05:36:10.758Z,15.26
2016-05-26T05:37:10.746Z,15.3
2016-05-26T05:38:10.701Z,15.33
2016-05-26T05:39:10.720Z,15.27
2016-05-26T05:40:10.394Z,15.33
2016-05-26T05:41:10.460Z,15.36
2016-05-26T05:42:11.103Z,15.39
2016-05-26T05:43:10.684Z,15.46
2016-05-26T05:44:10.608Z,15.48
2016-05-26T05:45:10.579Z,15.46
2016-05-26T05:46:10.551Z,15.39
2016-05-26T05:47:10.570Z,15.49
2016-05-26T05:48:11.776Z,15.51
2016-05-26T05:49:10.497Z,15.59
2016-05-26T05:50:10.656Z,15.59
2016-05-26T05:51:10.503Z,15.52
2016-05-26T05:52:10.614Z,15.59
2016-05-26T05:53:10.335Z,15.61
2016-05-26T05:54:10.400Z,15.66
2016-05-26T05:55:10.013Z,15.67
2016-05-26T05:56:10.344Z,15.66
2016-05-26T05:57:10.393Z,15.72
2016-05-26T05:58:10.724Z,15.74
2016-05-26T05:59:10.055Z,15.72
2016-05-26T06:00:10.057Z,15.72
2016-05-26T06:01:10.358Z,15.79
2016-05-26T06:02:10.500Z,15.84
2016-05-26T06:03:10.035Z,15.85
2016-05-26T06:04:10.397Z,15.93
2016-05-26T06:05:10.290Z,15.97
2016-05-26T06:06:10.011Z,16
2016-05-26T06:07:10.107Z,15.97
2016-05-26T06:08:10.048Z,16.06
2016-05-26T06:09:10.347Z,16.06
2016-05-26T06:10:09.944Z,16.12
2016-05-26T06:11:10.196Z,16.14
2016-05-26T06:12:09.934Z,16.15
2016-05-26T06:13:10.296Z,16.15
2016-05-26T06:14:10.267Z,16.22
2016-05-26T06:15:09.863Z,16.31
2016-05-26T06:16:09.928Z,16.31
2016-05-26T06:17:10.931Z,16.37
2016-05-26T06:18:10.185Z,16.34
2016-05-26T06:19:09.828Z,16.4
2016-05-26T06:20:09.612Z,16.44
2016-05-26T06:21:09.723Z,16.56
2016-05-26T06:22:09.726Z,16.58
2016-05-26T06:23:09.682Z,16.59
2016-05-26T06:24:09.653Z,16.59
2016-05-26T06:25:09.625Z,16.62
2016-05-26T06:26:09.628Z,16.65
2016-05-26T06:27:09.489Z,16.62
2016-05-26T06:28:09.586Z,16.77
2016-05-26T06:29:09.605Z,16.78
2016-05-26T06:30:09.732Z,16.83
2016-05-26T06:31:09.516Z,16.86
2016-05-26T06:32:09.456Z,16.8
2016-05-26T06:33:09.208Z,16.89
2016-05-26T06:34:09.336Z,16.95
2016-05-26T06:35:09.432Z,16.95
2016-05-26T06:36:09.404Z,16.98
2016-05-26T06:37:09.361Z,17.06
2016-05-26T06:38:09.425Z,17.08
2016-05-26T06:39:09.366Z,17.14
2016-05-26T06:40:09.305Z,17.2
2016-05-26T06:41:09.324Z,17.23
2016-05-26T06:42:09.108Z,17.18
2016-05-26T06:43:09.299Z,17.26
2016-05-26T06:44:09.270Z,17.26
2016-05-26T06:45:09.616Z,17.32
2016-05-26T06:46:09.166Z,17.32
2016-05-26T06:47:09.153Z,17.33
2016-05-26T06:48:09.812Z,17.29
2016-05-26T06:49:09.251Z,17.22
2016-05-26T06:50:11.020Z,17.33
2016-05-26T06:51:09.679Z,17.28
2016-05-26T06:52:10.135Z,17.38
2016-05-26T06:53:09.028Z,17.44
2016-05-26T06:54:08.827Z,17.43
2016-05-26T06:55:08.971Z,17.44
2016-05-26T06:56:08.989Z,17.46
2016-05-26T06:57:08.945Z,17.35
2016-05-26T06:58:08.620Z,17.5
2016-05-26T06:59:08.810Z,17.51
2016-05-26T07:00:09.109Z,17.48
2016-05-26T07:01:09.378Z,17.53
2016-05-26T07:02:08.897Z,17.43
2016-05-26T07:03:09.508Z,17.53
2016-05-26T07:04:08.761Z,17.57
2016-05-26T07:05:08.780Z,17.51
2016-05-26T07:06:08.563Z,17.55
2016-05-26T07:07:10.050Z,17.55
2016-05-26T07:08:08.834Z,17.55
2016-05-26T07:09:09.212Z,17.64
2016-05-26T07:10:08.996Z,17.62
2016-05-26T07:11:08.482Z,17.62
2016-05-26T07:12:08.657Z,17.63
2016-05-26T07:13:08.551Z,17.67
2016-05-26T07:14:08.616Z,17.7
2016-05-26T07:15:09.024Z,17.71
2016-05-26T07:16:08.574Z,17.7
2016-05-26T07:17:08.639Z,17.7
2016-05-26T07:18:09.299Z,17.76
2016-05-26T07:19:08.693Z,17.71
2016-05-26T07:20:08.396Z,17.7
2016-05-26T07:21:11.635Z,17.79
2016-05-26T07:22:08.825Z,17.73
2016-05-26T07:23:08.481Z,17.84
2016-05-26T07:24:08.296Z,17.91
2016-05-26T07:25:08.643Z,17.92
2016-05-26T07:26:08.176Z,17.97
2016-05-26T07:27:08.133Z,17.94
2016-05-26T07:28:08.276Z,17.87
2016-05-26T07:29:08.434Z,17.92
2016-05-26T07:30:08.893Z,17.92
2016-05-26T07:31:08.486Z,17.95
2016-05-26T07:32:08.552Z,18.07
2016-05-26T07:33:08.711Z,18.04
2016-05-26T07:34:08.136Z,18.06
2016-05-26T07:35:08.169Z,17.94
2016-05-26T07:36:07.938Z,17.92
2016-05-26T07:37:08.018Z,17.97
2016-05-26T07:38:07.973Z,17.94
2016-05-26T07:39:07.892Z,17.97
2016-05-26T07:40:08.216Z,17.97
2016-05-26T07:41:08.260Z,17.88
2016-05-26T07:42:08.443Z,17.94
2016-05-26T07:43:08.056Z,17.95
2016-05-26T07:44:08.036Z,17.88
2016-05-26T07:45:08.625Z,17.95
2016-05-26T07:46:08.058Z,17.95
2016-05-26T07:47:08.039Z,17.88
2016-05-26T07:48:10.037Z,17.89
2016-05-26T07:49:07.975Z,17.91
2016-05-26T07:50:07.966Z,17.97
2016-05-26T07:51:08.004Z,17.88
2016-05-26T07:52:08.088Z,17.91
2016-05-26T07:53:07.890Z,17.94
2016-05-26T07:54:07.753Z,17.94
2016-05-26T07:55:07.881Z,17.85
2016-05-26T07:56:08.027Z,17.94
2016-05-26T07:57:07.890Z,17.92
2016-05-26T07:58:08.112Z,17.87
2016-05-26T07:59:07.754Z,17.79
2016-05-26T08:00:07.711Z,17.74
2016-05-26T08:01:09.168Z,17.73
2016-05-26T08:02:07.545Z,17.67
2016-05-26T08:03:07.861Z,17.66
2016-05-26T08:04:07.582Z,17.7
2016-05-26T08:05:07.725Z,17.54
2016-05-26T08:06:07.494Z,17.63
2016-05-26T08:07:07.591Z,17.55
2016-05-26T08:08:07.562Z,17.57
2016-05-26T08:09:07.657Z,17.63
2016-05-26T08:10:07.693Z,17.62
2016-05-26T08:11:07.524Z,17.57
2016-05-26T08:12:07.510Z,17.51
2016-05-26T08:13:07.372Z,17.51
2016-05-26T08:14:07.437Z,17.59
2016-05-26T08:15:07.690Z,17.51
2016-05-26T08:16:07.740Z,17.48
2016-05-26T08:17:07.383Z,17.44
2016-05-26T08:18:07.714Z,17.55
2016-05-26T08:19:07.356Z,17.51
2016-05-26T08:20:07.360Z,17.44
2016-05-26T08:21:07.362Z,17.51
2016-05-26T08:22:07.178Z,17.5
2016-05-26T08:23:07.383Z,17.46
2016-05-26T08:24:07.105Z,17.51
2016-05-26T08:25:07.061Z,17.48
2016-05-26T08:26:07.047Z,17.48
2016-05-26T08:27:10.284Z,17.48
2016-05-26T08:28:07.162Z,17.54
2016-05-26T08:29:07.196Z,17.51
2016-05-26T08:30:07.089Z,17.43
2016-05-26T08:31:07.124Z,17.55
2016-05-26T08:32:10.516Z,17.59
2016-05-26T08:33:07.066Z,17.55
2016-05-26T08:34:06.945Z,17.54
2016-05-26T08:35:06.993Z,17.62
2016-05-26T08:36:06.980Z,17.69
2016-05-26T08:37:07.390Z,17.74
2016-05-26T08:38:07.439Z,17.74
2016-05-26T08:39:06.942Z,17.71
2016-05-26T08:40:06.758Z,17.7
2016-05-26T08:41:06.665Z,17.81
2016-05-26T08:42:09.982Z,17.76
2016-05-26T08:43:06.813Z,17.74
2016-05-26T08:44:06.799Z,17.71
2016-05-26T08:45:06.802Z,17.67
2016-05-26T08:46:06.726Z,17.69
2016-05-26T08:47:08.495Z,17.63
2016-05-26T08:48:06.998Z,17.59
2016-05-26T08:49:06.751Z,17.59
2016-05-26T08:50:07.440Z,17.59
2016-05-26T08:51:06.771Z,17.53
2016-05-26T08:52:07.337Z,17.51
2016-05-26T08:53:06.479Z,17.54
2016-05-26T08:54:06.607Z,17.44
2016-05-26T08:55:06.578Z,17.53
2016-05-26T08:56:06.441Z,17.5
2016-05-26T08:57:06.506Z,17.4
2016-05-26T08:58:06.478Z,17.32
2016-05-26T08:59:06.464Z,17.44
2016-05-26T09:00:06.280Z,17.36
2016-05-26T09:01:06.314Z,17.43
2016-05-26T09:02:08.457Z,17.35
2016-05-26T09:03:06.397Z,17.41
2016-05-26T09:04:06.197Z,17.53
2016-05-26T09:05:06.199Z,17.59
2016-05-26T09:06:06.171Z,17.57
2016-05-26T09:07:06.299Z,17.55
2016-05-26T09:08:06.113Z,17.53
2016-05-26T09:09:06.101Z,17.67
2016-05-26T09:10:06.229Z,17.66
2016-05-26T09:11:06.246Z,17.7
2016-05-26T09:12:06.093Z,17.71
2016-05-26T09:13:06.158Z,17.76
2016-05-26T09:14:06.145Z,17.7
2016-05-26T09:15:06.148Z,17.82
2016-05-26T09:16:06.088Z,17.88
2016-05-26T09:17:05.935Z,17.88
2016-05-26T09:18:05.781Z,17.91
2016-05-26T09:19:06.049Z,17.88
2016-05-26T09:20:05.881Z,17.95
2016-05-26T09:21:05.976Z,17.87
2016-05-26T09:22:05.995Z,17.97
2016-05-26T09:23:05.951Z,17.92
2016-05-26T09:24:05.923Z,17.92
2016-05-26T09:25:05.879Z,18.06
2016-05-26T09:26:05.880Z,18.07
2016-05-26T09:27:05.884Z,18.03
2016-05-26T09:28:05.948Z,18.12
2016-05-26T09:29:05.842Z,18.19
2016-05-26T09:30:05.829Z,18.18
2016-05-26T09:31:05.817Z,18.17
2016-05-26T09:32:06.100Z,18.28
2016-05-26T09:33:05.775Z,18.39
2016-05-26T09:34:05.794Z,18.4
2016-05-26T09:35:05.780Z,18.49
2016-05-26T09:36:05.627Z,18.5
2016-05-26T09:37:05.644Z,18.54
2016-05-26T09:38:05.694Z,18.55
2016-05-26T09:39:05.635Z,18.54
2016-05-26T09:40:05.528Z,18.54
2016-05-26T09:41:05.483Z,18.54
2016-05-26T09:42:05.533Z,18.7
2016-05-26T09:43:05.536Z,18.65
2016-05-26T09:44:05.335Z,18.68
2016-05-26T09:45:05.369Z,18.68
2016-05-26T09:46:05.451Z,18.7
2016-05-26T09:47:05.594Z,18.68
2016-05-26T09:48:05.284Z,18.72
2016-05-26T09:49:05.302Z,18.76
2016-05-26T09:50:05.337Z,18.64
2016-05-26T09:51:05.370Z,18.73
2016-05-26T09:52:05.326Z,18.74
2016-05-26T09:53:05.531Z,18.77
2016-05-26T09:54:05.316Z,18.77
2016-05-26T09:55:05.287Z,18.74
2016-05-26T09:56:05.259Z,18.72
2016-05-26T09:57:05.198Z,18.67
2016-05-26T09:58:05.123Z,18.65
2016-05-26T09:59:05.282Z,18.7
2016-05-26T10:00:05.582Z,18.68
2016-05-26T10:01:05.459Z,18.65
2016-05-26T10:02:05.150Z,18.74
2016-05-26T10:03:05.417Z,18.73
2016-05-26T10:04:05.295Z,18.74
2016-05-26T10:05:05.048Z,18.65
2016-05-26T10:06:08.380Z,18.7
2016-05-26T10:07:05.069Z,18.67
2016-05-26T10:08:05.010Z,18.73
2016-05-26T10:09:05.700Z,18.68
2016-05-26T10:10:04.936Z,18.72
2016-05-26T10:11:05.111Z,18.7
2016-05-26T10:12:04.927Z,18.67
2016-05-26T10:13:05.008Z,18.73
2016-05-26T10:14:05.026Z,18.72
2016-05-26T10:15:04.888Z,18.72
2016-05-26T10:16:04.672Z,18.65
2016-05-26T10:17:04.877Z,18.72
2016-05-26T10:18:05.004Z,18.62
2016-05-26T10:19:04.930Z,18.73
2016-05-26T10:20:04.838Z,18.65
2016-05-26T10:21:08.138Z,18.62
2016-05-26T10:22:05.062Z,18.77
2016-05-26T10:23:04.628Z,18.7
2016-05-26T10:24:04.834Z,18.77
2016-05-26T10:25:05.056Z,18.9
2016-05-26T10:26:04.667Z,18.92
2016-05-26T10:27:05.170Z,18.97
2016-05-26T10:28:04.517Z,18.94
2016-05-26T10:29:04.676Z,18.87
2016-05-26T10:30:04.694Z,18.82
2016-05-26T10:31:04.634Z,18.95
2016-05-26T10:32:05.433Z,18.94
2016-05-26T10:33:04.483Z,18.94
2016-05-26T10:34:05.595Z,18.9
2016-05-26T10:35:04.285Z,18.98
2016-05-26T10:36:04.788Z,18.97
2016-05-26T10:37:04.399Z,18.99
2016-05-26T10:38:04.450Z,18.99
2016-05-26T10:39:04.436Z,19.15
2016-05-26T10:40:05.439Z,19.17
2016-05-26T10:41:04.317Z,19.21
2016-05-26T10:42:04.304Z,19.39
2016-05-26T10:43:04.385Z,19.42
2016-05-26T10:44:05.231Z,19.39
2016-05-26T10:45:04.515Z,19.55
2016-05-26T10:46:04.175Z,19.39
2016-05-26T10:47:04.583Z,19.53
2016-05-26T10:48:04.196Z,19.54
2016-05-26T10:49:04.151Z,19.63
2016-05-26T10:50:04.248Z,19.68
2016-05-26T10:51:03.953Z,19.66
2016-05-26T10:52:04.347Z,19.53
2016-05-26T10:53:04.349Z,19.54
2016-05-26T10:54:04.071Z,19.43
2016-05-26T10:55:04.057Z,19.5
2016-05-26T10:56:04.076Z,19.43
2016-05-26T10:57:03.859Z,19.38
2016-05-26T10:58:04.128Z,19.36
2016-05-26T10:59:03.975Z,19.35
2016-05-26T11:00:03.900Z,19.42
2016-05-26T11:01:03.902Z,19.4
2016-05-26T11:02:03.889Z,19.38
2016-05-26T11:03:04.111Z,19.36
2016-05-26T11:04:04.191Z,19.29
2016-05-26T11:05:03.866Z,19.31
2016-05-26T11:06:03.837Z,19.28
2016-05-26T11:07:03.669Z,19.29
2016-05-26T11:08:03.749Z,19.24
2016-05-26T11:09:03.767Z,19.42
2016-05-26T11:10:03.255Z,19.31
2016-05-26T11:11:03.522Z,19.25
2016-05-26T11:12:03.697Z,19.25
2016-05-26T11:13:04.435Z,19.23
2016-05-26T11:14:03.608Z,19.2
2016-05-26T11:15:03.971Z,19.29
2016-05-26T11:16:03.863Z,19.31
2016-05-26T11:17:05.038Z,19.28
2016-05-26T11:18:04.369Z,19.15
2016-05-26T11:19:04.341Z,19.13
2016-05-26T11:20:03.672Z,19.18
2016-05-26T11:21:03.831Z,19.24
2016-05-26T11:22:04.302Z,19.23
2016-05-26T11:23:03.743Z,19.32
2016-05-26T11:24:04.823Z,19.36
2016-05-26T11:25:03.857Z,19.39
2016-05-26T11:26:03.360Z,19.43
2016-05-26T11:27:03.393Z,19.66
2016-05-26T11:28:03.350Z,19.63
2016-05-26T11:29:03.289Z,19.88
2016-05-26T11:30:03.668Z,19.95
2016-05-26T11:31:03.295Z,20.06
2016-05-26T11:32:03.657Z,20.12
2016-05-26T11:33:03.441Z,20.21
2016-05-26T11:34:03.287Z,20.27
2016-05-26T11:35:03.353Z,20.25
2016-05-26T11:36:03.950Z,20.3
2016-05-26T11:37:03.139Z,20.41
2016-05-26T11:38:03.127Z,20.41
2016-05-26T11:39:03.145Z,20.42
2016-05-26T11:40:03.116Z,20.42
2016-05-26T11:41:03.056Z,20.49
2016-05-26T11:42:03.013Z,20.39
2016-05-26T11:43:03.109Z,20.42
2016-05-26T11:44:03.033Z,20.46
2016-05-26T11:45:03.067Z,20.38
2016-05-26T11:46:02.913Z,20.34
2016-05-26T11:47:02.963Z,20.41
2016-05-26T11:48:03.075Z,20.38
2016-05-26T11:49:03.360Z,20.59
2016-05-26T11:50:02.924Z,21.02
2016-05-26T11:52:02.836Z,21.39
2016-05-26T11:53:02.668Z,21.91
2016-05-26T11:54:02.826Z,22.2
2016-05-26T11:55:03.282Z,22.78
2016-05-26T11:56:02.612Z,23.11
2016-05-26T11:57:02.725Z,22.96
2016-05-26T11:58:02.743Z,23.29
2016-05-26T11:59:02.620Z,23.17
2016-05-26T12:00:02.702Z,23.38
2016-05-26T12:01:02.954Z,23.39
2016-05-26T12:02:02.987Z,23.55
2016-05-26T12:03:02.475Z,23.52
2016-05-26T12:04:02.822Z,23.35
2016-05-26T12:05:03.121Z,23.17
2016-05-26T12:06:02.545Z,23.17
2016-05-26T12:07:03.611Z,23.12
2016-05-26T12:08:02.551Z,23.31
2016-05-26T12:09:02.335Z,23.38
2016-05-26T12:10:02.557Z,23.5
2016-05-26T12:11:02.512Z,23.72
2016-05-26T12:12:02.483Z,23.98
2016-05-26T12:13:02.283Z,24.38
2016-05-26T12:14:02.395Z,24.75
2016-05-26T12:15:02.398Z,25.16
2016-05-26T12:16:02.541Z,25.37
2016-05-26T12:17:02.419Z,25.32
2016-05-26T12:18:02.827Z,25.01
2016-05-26T12:19:03.002Z,24.79
2016-05-26T12:20:02.615Z,24.77
2016-05-26T12:21:02.852Z,24.59
2016-05-26T12:22:02.401Z,24.44
2016-05-26T12:23:02.326Z,24.22
2016-05-26T12:24:02.265Z,23.97
2016-05-26T12:25:02.207Z,23.7
2016-05-26T12:26:02.506Z,23.46
2016-05-26T12:27:02.179Z,23.29
2016-05-26T12:54:11.910Z,21.19
2016-05-26T12:55:11.474Z,21.29
2016-05-26T12:56:11.087Z,21.27
2016-05-26T12:57:11.965Z,21.34
2016-05-26T12:58:11.249Z,21.35
2016-05-26T12:59:12.813Z,21.44
2016-05-26T13:00:11.160Z,21.46
2016-05-26T13:01:14.851Z,21.53
2016-05-26T13:02:11.493Z,21.64
2016-05-26T13:03:11.543Z,21.66
2016-05-26T13:04:11.796Z,21.53
2016-05-26T13:05:14.267Z,21.54
2016-05-26T13:06:11.176Z,21.35
2016-05-26T13:07:11.898Z,21.38
2016-05-26T13:08:11.056Z,21.35
2016-05-26T13:09:10.918Z,21.29
2016-05-26T13:10:10.875Z,21.24
2016-05-26T13:11:11.846Z,21.27
2016-05-26T13:12:10.864Z,21.24
2016-05-26T13:13:12.351Z,21.26
2016-05-26T13:14:11.964Z,21.26
2016-05-26T13:15:10.684Z,21.27
2016-05-26T13:16:11.000Z,21.3
2016-05-26T13:17:12.971Z,21.27
2016-05-26T13:18:11.599Z,21.95
2016-05-26T13:19:10.680Z,23.08
2016-05-26T13:20:10.635Z,22.72
2016-05-26T13:21:10.716Z,24.29